createdAt,value
2019-02-07T00:00:43.178Z,17.63
2019-02-07T00:03:33.234Z,18.97
2019-02-07T00:06:23.695Z,18.63
2019-02-07T00:09:13.746Z,19.70
2019-02-07T00:12:03.888Z,18.23
2019-02-07T00:14:54.362Z,15.23
2019-02-07T00:17:44.586Z,16.13
2019-02-07T00:20:34.641Z,17.77
2019-02-07T00:23:25.074Z,21.07
2019-02-07T00:26:15.313Z,18.00
2019-02-07T00:29:05.469Z,18.07
2019-02-07T00:31:56.522Z,18.97
2019-02-07T00:34:46.879Z,17.73
2019-02-07T00:37:36.755Z,22.13
2019-02-07T00:40:26.838Z,18.40
2019-02-07T00:43:17.218Z,18.43
2019-02-07T00:46:07.749Z,17.17
2019-02-07T00:48:57.848Z,16.10
2019-02-07T00:51:47.790Z,16.07
2019-02-07T00:54:38.028Z,18.00
2019-02-07T00:57:28.354Z,18.27
2019-02-07T01:00:21.440Z,18.13
2019-02-07T01:03:11.665Z,16.57
2019-02-07T01:06:02.230Z,16.80
2019-02-07T01:08:52.505Z,15.93
2019-02-07T01:11:42.508Z,14.73
2019-02-07T01:14:32.937Z,16.03
2019-02-07T01:17:23.446Z,17.93
2019-02-07T01:20:15.959Z,11.87
2019-02-07T01:23:07.086Z,11.47
2019-02-07T01:25:57.302Z,12.33
2019-02-07T01:28:47.303Z,10.47
2019-02-07T01:31:37.210Z,9.37
2019-02-07T01:34:27.547Z,9.47
2019-02-07T01:37:17.882Z,9.83
2019-02-07T01:40:12.058Z,6.53
2019-02-07T01:43:01.914Z,9.20
2019-02-07T01:45:51.931Z,9.53
2019-02-07T01:48:42.169Z,9.20
2019-02-07T01:51:32.528Z,8.43
2019-02-07T01:54:23.423Z,8.47
2019-02-07T01:57:13.634Z,8.37
2019-02-07T02:00:07.382Z,8.97
2019-02-07T02:02:57.837Z,7.20
2019-02-07T02:05:48.726Z,10.27
2019-02-07T02:08:39.018Z,8.50
2019-02-07T02:11:28.997Z,9.63
2019-02-07T02:14:19.210Z,8.57
2019-02-07T02:17:09.207Z,7.80
2019-02-07T02:19:59.478Z,9.17
2019-02-07T02:22:50.040Z,9.83
2019-02-07T02:25:40.139Z,10.87
2019-02-07T02:28:30.630Z,9.63
2019-02-07T02:31:20.790Z,9.70
2019-02-07T02:34:12.340Z,11.90
2019-02-07T02:37:02.414Z,12.40
2019-02-07T02:39:52.308Z,10.17
2019-02-07T02:42:42.377Z,9.40
2019-02-07T02:45:37.614Z,9.27
2019-02-07T02:48:24.370Z,9.97
2019-02-07T02:51:14.408Z,10.20
2019-02-07T02:54:05.132Z,9.70
2019-02-07T02:56:55.930Z,9.93
2019-02-07T02:59:46.289Z,11.50
2019-02-07T03:03:11.473Z,11.07
2019-02-07T03:06:20.287Z,9.43
2019-02-07T03:09:29.573Z,8.70
2019-02-07T03:12:38.682Z,11.00
2019-02-07T03:15:49.131Z,11.63
2019-02-07T03:18:45.930Z,9.73
2019-02-07T03:21:53.582Z,9.90
2019-02-07T03:25:15.870Z,11.00
2019-02-07T03:28:30.681Z,9.87
2019-02-07T03:31:55.392Z,11.03
2019-02-07T03:35:13.709Z,7.73
2019-02-07T03:38:34.770Z,9.47
2019-02-07T03:41:42.545Z,7.93
2019-02-07T03:44:50.312Z,9.60
2019-02-07T03:47:50.455Z,7.57
2019-02-07T03:51:03.125Z,9.40
2019-02-07T03:54:04.611Z,7.83
2019-02-07T03:57:12.607Z,9.40
2019-02-07T04:00:30.943Z,9.23
2019-02-07T04:03:31.816Z,8.43
2019-02-07T04:06:33.257Z,7.37
2019-02-07T04:09:49.198Z,8.07
2019-02-07T04:13:13.733Z,11.97
2019-02-07T04:16:20.616Z,9.23
2019-02-07T04:19:38.810Z,9.03
2019-02-07T04:22:51.423Z,6.33
2019-02-07T04:26:12.916Z,4.53
2019-02-07T04:29:33.838Z,2.37
2019-02-07T04:32:55.366Z,1.60
2019-02-07T04:36:09.114Z,2.43
2019-02-07T04:39:14.854Z,7.57
2019-02-07T04:42:26.262Z,7.60
2019-02-07T04:45:34.533Z,8.27
2019-02-07T04:48:56.269Z,13.73
2019-02-07T04:51:55.998Z,12.60
2019-02-07T04:54:55.228Z,16.73
2019-02-07T04:58:03.526Z,15.40
2019-02-07T05:01:12.654Z,21.80
2019-02-07T05:04:21.697Z,25.60
2019-02-07T05:07:40.534Z,21.00
2019-02-07T05:10:52.298Z,23.07
2019-02-07T05:13:54.935Z,30.70
2019-02-07T05:17:10.271Z,28.23
2019-02-07T05:20:22.149Z,24.27
2019-02-07T05:23:34.865Z,20.57
2019-02-07T05:26:56.026Z,29.40
2019-02-07T05:30:17.561Z,22.27
2019-02-07T05:33:45.038Z,18.43
2019-02-07T05:37:03.692Z,29.80
2019-02-07T05:39:59.094Z,22.13
2019-02-07T05:43:21.227Z,28.50
2019-02-07T05:46:29.255Z,29.23
2019-02-07T05:49:37.342Z,20.33
2019-02-07T05:53:01.961Z,22.97
2019-02-07T05:56:17.401Z,19.83
2019-02-07T05:59:26.276Z,28.57
2019-02-07T06:02:35.441Z,19.00
2019-02-07T06:05:43.090Z,30.33
2019-02-07T06:09:01.726Z,34.17
2019-02-07T06:12:15.049Z,26.43
2019-02-07T06:15:25.890Z,23.37
2019-02-07T06:18:28.577Z,33.43
2019-02-07T06:21:48.247Z,29.50
2019-02-07T06:24:56.201Z,32.83
2019-02-07T06:28:05.670Z,24.30
2019-02-07T06:31:03.649Z,25.13
2019-02-07T06:34:28.744Z,25.67
2019-02-07T06:37:27.153Z,25.53
2019-02-07T06:40:37.147Z,26.10
2019-02-07T06:43:42.281Z,26.00
2019-02-07T06:46:57.046Z,41.07
2019-02-07T06:50:05.839Z,25.27
2019-02-07T06:53:15.546Z,24.57
2019-02-07T06:56:19.305Z,28.37
2019-02-07T06:59:27.307Z,32.50
2019-02-07T07:02:39.370Z,28.17
2019-02-07T07:05:48.789Z,31.33
2019-02-07T07:09:04.785Z,32.63
2019-02-07T07:12:19.882Z,27.57
2019-02-07T07:15:42.108Z,23.53
2019-02-07T07:18:49.877Z,19.97
2019-02-07T07:21:58.180Z,31.63
2019-02-07T07:25:22.958Z,25.53
2019-02-07T07:28:32.074Z,25.90
2019-02-07T07:31:50.528Z,39.23
2019-02-07T07:35:02.531Z,32.40
2019-02-07T07:38:11.690Z,30.10
2019-02-07T07:41:22.962Z,25.23
2019-02-07T07:44:48.154Z,34.27
2019-02-07T07:47:57.125Z,35.57
2019-02-07T07:51:05.299Z,29.17
2019-02-07T07:54:26.359Z,28.23
2019-02-07T07:57:35.649Z,27.10
2019-02-07T08:00:40.203Z,32.57
2019-02-07T08:03:40.544Z,32.93
2019-02-07T08:06:49.686Z,28.63
2019-02-07T08:10:08.142Z,30.90
2019-02-07T08:13:10.721Z,29.03
2019-02-07T08:16:23.747Z,35.53
2019-02-07T08:19:42.140Z,32.03
2019-02-07T08:22:49.990Z,29.40
2019-02-07T08:26:08.247Z,29.03
2019-02-07T08:29:15.223Z,27.30
2019-02-07T08:32:27.657Z,30.83
2019-02-07T08:35:42.198Z,37.17
2019-02-07T08:38:50.058Z,32.60
2019-02-07T08:42:11.077Z,33.37
2019-02-07T08:45:19.189Z,29.70
2019-02-07T08:48:27.343Z,19.27
2019-02-07T08:51:32.270Z,26.53
2019-02-07T08:54:54.297Z,21.60
2019-02-07T08:58:02.149Z,22.70
2019-02-07T09:01:11.436Z,26.43
2019-02-07T09:04:19.142Z,17.70
2019-02-07T09:07:40.739Z,18.73
2019-02-07T09:10:49.243Z,21.97
2019-02-07T09:14:01.439Z,19.17
2019-02-07T09:17:14.576Z,25.47
2019-02-07T09:20:31.714Z,21.80
2019-02-07T09:23:32.974Z,20.30
2019-02-07T09:26:45.902Z,14.80
2019-02-07T09:30:05.998Z,24.90
2019-02-07T09:33:21.911Z,21.00
2019-02-07T09:36:29.926Z,19.07
2019-02-07T09:39:38.890Z,20.17
2019-02-07T09:43:03.269Z,20.00
2019-02-07T09:46:24.002Z,23.00
2019-02-07T09:49:30.633Z,22.97
2019-02-07T09:52:39.248Z,24.67
2019-02-07T09:55:55.129Z,22.37
2019-02-07T09:58:58.031Z,29.20
2019-02-07T10:02:06.172Z,25.33
2019-02-07T10:05:15.258Z,18.37
2019-02-07T10:08:43.308Z,19.03
2019-02-07T10:11:55.441Z,21.23
2019-02-07T10:15:14.438Z,19.53
2019-02-07T10:18:33.417Z,16.37
2019-02-07T10:21:42.529Z,12.70
2019-02-07T10:24:47.122Z,13.07
2019-02-07T10:27:58.956Z,16.87
2019-02-07T10:31:21.002Z,21.43
2019-02-07T10:34:20.907Z,16.43
2019-02-07T10:37:28.564Z,16.53
2019-02-07T10:40:44.729Z,10.90
2019-02-07T10:43:50.955Z,23.20
2019-02-07T10:46:58.786Z,13.23
2019-02-07T10:50:22.983Z,10.67
2019-02-07T10:53:24.486Z,14.23
2019-02-07T10:56:36.991Z,15.43
2019-02-07T10:59:46.050Z,21.43
2019-02-07T11:02:54.437Z,16.93
2019-02-07T11:05:56.010Z,18.13
2019-02-07T11:09:11.329Z,13.40
2019-02-07T11:12:18.998Z,16.17
2019-02-07T11:15:30.647Z,14.93
2019-02-07T11:18:35.425Z,10.47
2019-02-07T11:21:44.426Z,16.23
2019-02-07T11:24:52.046Z,18.17
2019-02-07T11:28:10.543Z,13.17
2019-02-07T11:31:33.093Z,18.17
2019-02-07T11:34:46.062Z,12.33
2019-02-07T11:38:10.039Z,18.53
2019-02-07T11:41:33.923Z,11.57
2019-02-07T11:44:51.701Z,17.37
2019-02-07T11:48:01.107Z,15.57
2019-02-07T11:51:22.530Z,12.37
2019-02-07T11:54:34.876Z,8.57
2019-02-07T11:57:38.850Z,11.07
2019-02-07T12:00:49.724Z,18.47
2019-02-07T12:04:00.670Z,13.27
2019-02-07T12:07:11.210Z,17.17
2019-02-07T12:10:16.966Z,16.17
2019-02-07T12:13:25.938Z,15.60
2019-02-07T12:16:29.794Z,11.10
2019-02-07T12:19:37.605Z,8.53
2019-02-07T12:22:40.158Z,11.83
2019-02-07T12:25:49.614Z,13.27
2019-02-07T12:28:58.767Z,10.90
2019-02-07T12:32:14.180Z,11.77
2019-02-07T12:35:23.474Z,13.60
2019-02-07T12:38:35.979Z,19.00
2019-02-07T12:41:44.202Z,14.40
2019-02-07T12:44:58.685Z,9.80
2019-02-07T12:48:26.363Z,14.83
2019-02-07T12:51:33.204Z,10.57
2019-02-07T12:54:44.990Z,13.10
2019-02-07T12:57:54.634Z,12.10
2019-02-07T13:01:19.100Z,29.63
2019-02-07T13:04:40.568Z,15.93
2019-02-07T13:07:48.570Z,10.50
2019-02-07T13:11:06.906Z,12.90
2019-02-07T13:14:07.568Z,12.37
2019-02-07T13:17:15.713Z,11.40
2019-02-07T13:20:27.985Z,20.87
2019-02-07T13:23:36.300Z,11.47
2019-02-07T13:26:44.385Z,12.40
2019-02-07T13:29:45.819Z,8.80
2019-02-07T13:33:13.789Z,9.83
2019-02-07T13:36:34.901Z,13.43
2019-02-07T13:39:40.482Z,13.57
2019-02-07T13:42:45.850Z,15.60
2019-02-07T13:45:58.171Z,17.93
2019-02-07T13:49:07.376Z,13.80
2019-02-07T13:52:09.547Z,11.77
2019-02-07T13:55:25.341Z,15.90
2019-02-07T13:58:43.613Z,14.03
2019-02-07T14:01:52.651Z,13.27
2019-02-07T14:04:55.094Z,11.13
2019-02-07T14:08:04.556Z,8.73
2019-02-07T14:11:16.863Z,13.80
2019-02-07T14:14:29.098Z,14.53
2019-02-07T14:17:44.398Z,11.47
2019-02-07T14:20:53.458Z,9.97
2019-02-07T14:24:17.454Z,15.73
2019-02-07T14:27:29.422Z,9.43
2019-02-07T14:30:37.327Z,23.07
2019-02-07T14:33:45.878Z,13.87
2019-02-07T14:36:53.779Z,13.87
2019-02-07T14:40:04.350Z,11.23
2019-02-07T14:43:13.590Z,12.53
2019-02-07T14:46:29.745Z,16.83
2019-02-07T14:49:20.220Z,15.00
2019-02-07T14:52:10.794Z,6.07
2019-02-07T14:55:01.146Z,12.87
2019-02-07T14:57:51.493Z,13.73
2019-02-07T15:00:41.646Z,10.77
2019-02-07T15:03:31.619Z,14.33
2019-02-07T15:06:22.053Z,18.20
2019-02-07T15:09:16.946Z,17.20
2019-02-07T15:12:07.709Z,9.27
2019-02-07T15:14:57.994Z,14.23
2019-02-07T15:17:48.322Z,7.70
2019-02-07T15:20:38.722Z,14.03
2019-02-07T15:23:28.725Z,6.53
2019-02-07T15:26:19.106Z,9.87
2019-02-07T15:29:09.325Z,12.33
2019-02-07T15:31:59.593Z,10.03
2019-02-07T15:34:49.942Z,10.07
2019-02-07T15:37:40.233Z,12.73
2019-02-07T15:40:30.409Z,10.97
2019-02-07T15:43:20.727Z,12.80
2019-02-07T15:46:11.943Z,10.40
2019-02-07T15:49:02.489Z,11.23
2019-02-07T15:51:52.442Z,14.10
2019-02-07T15:54:43.470Z,16.80
2019-02-07T15:57:33.886Z,12.23
2019-02-07T16:00:37.721Z,17.00
2019-02-07T16:03:39.226Z,14.50
2019-02-07T16:06:30.051Z,11.23
2019-02-07T16:09:20.410Z,10.67
2019-02-07T16:12:11.111Z,14.57
2019-02-07T16:15:01.457Z,18.87
2019-02-07T16:17:53.050Z,12.23
2019-02-07T16:20:48.870Z,14.17
2019-02-07T16:23:35.325Z,16.87
2019-02-07T16:26:26.121Z,11.33
2019-02-07T16:29:16.061Z,12.30
2019-02-07T16:32:06.931Z,13.97
2019-02-07T16:34:56.990Z,14.77
2019-02-07T16:37:47.270Z,12.37
2019-02-07T16:40:37.877Z,16.77
2019-02-07T16:43:28.024Z,10.83
2019-02-07T16:46:17.997Z,14.33
2019-02-07T16:49:09.154Z,16.50
2019-02-07T16:52:00.061Z,13.50
2019-02-07T16:54:50.430Z,17.47
2019-02-07T16:57:40.924Z,15.40
2019-02-07T17:00:30.884Z,23.47
2019-02-07T17:03:21.266Z,19.10
2019-02-07T17:06:11.206Z,19.53
2019-02-07T17:09:01.507Z,13.07
2019-02-07T17:11:53.063Z,12.70
2019-02-07T17:14:43.786Z,10.40
2019-02-07T17:17:33.726Z,13.87
2019-02-07T17:20:33.197Z,12.67
2019-02-07T17:23:23.543Z,11.33
2019-02-07T17:26:14.222Z,9.50
2019-02-07T17:29:04.321Z,18.53
2019-02-07T17:31:55.262Z,18.57
2019-02-07T17:34:46.083Z,14.13
2019-02-07T17:37:36.438Z,12.07
2019-02-07T17:40:26.722Z,17.40
2019-02-07T17:43:17.805Z,14.77
2019-02-07T17:46:08.275Z,13.77
2019-02-07T17:48:58.713Z,13.53
2019-02-07T17:51:49.893Z,17.97
2019-02-07T17:54:40.717Z,14.40
2019-02-07T17:57:30.867Z,16.57
2019-02-07T18:00:33.478Z,11.97
2019-02-07T18:03:25.002Z,18.50
2019-02-07T18:06:15.380Z,12.27
2019-02-07T18:09:08.935Z,8.17
2019-02-07T18:12:00.630Z,19.20
2019-02-07T18:14:51.174Z,13.57
2019-02-07T18:17:41.998Z,11.03
2019-02-07T18:20:32.381Z,14.60
2019-02-07T18:23:22.895Z,12.93
2019-02-07T18:26:13.305Z,14.87
2019-02-07T18:29:03.343Z,14.67
2019-02-07T18:31:54.059Z,20.63
2019-02-07T18:34:44.117Z,16.97
2019-02-07T18:37:34.370Z,11.83
2019-02-07T18:40:25.902Z,11.63
2019-02-07T18:43:16.132Z,13.63
2019-02-07T18:46:07.244Z,15.00
2019-02-07T18:48:57.470Z,13.30
2019-02-07T18:51:47.762Z,16.57
2019-02-07T18:54:37.887Z,13.17
2019-02-07T18:57:28.106Z,10.00
2019-02-07T19:00:21.481Z,14.27
2019-02-07T19:03:11.649Z,10.80
2019-02-07T19:06:01.898Z,12.70
2019-02-07T19:08:51.758Z,23.10
2019-02-07T19:11:42.574Z,15.77
2019-02-07T19:14:33.538Z,11.60
2019-02-07T19:17:25.618Z,15.43
2019-02-07T19:20:17.482Z,13.47
2019-02-07T19:23:07.969Z,9.97
2019-02-07T19:25:57.963Z,12.93
2019-02-07T19:28:48.301Z,15.33
2019-02-07T19:31:40.134Z,19.60
2019-02-07T19:34:30.174Z,12.53
2019-02-07T19:37:21.299Z,19.43
2019-02-07T19:40:12.910Z,13.47
2019-02-07T19:43:03.170Z,14.83
2019-02-07T19:45:53.511Z,17.40
2019-02-07T19:48:44.096Z,9.70
2019-02-07T19:51:34.450Z,18.03
2019-02-07T19:54:24.721Z,10.33
2019-02-07T19:57:15.547Z,13.93
2019-02-07T20:00:10.005Z,13.17
2019-02-07T20:03:01.288Z,14.83
2019-02-07T20:05:51.745Z,13.20
2019-02-07T20:08:43.108Z,14.63
2019-02-07T20:11:34.975Z,12.07
2019-02-07T20:14:26.513Z,16.83
2019-02-07T20:17:16.579Z,15.97
2019-02-07T20:20:07.971Z,16.47
2019-02-07T20:22:57.719Z,13.10
2019-02-07T20:25:49.050Z,14.93
2019-02-07T20:28:40.537Z,8.70
2019-02-07T20:31:31.012Z,13.10
2019-02-07T20:34:21.210Z,6.63
2019-02-07T20:37:11.635Z,16.33
2019-02-07T20:40:01.990Z,7.87
2019-02-07T20:42:53.246Z,17.03
2019-02-07T20:45:44.667Z,10.40
2019-02-07T20:48:34.970Z,6.57
2019-02-07T20:51:24.969Z,7.43
2019-02-07T20:54:15.242Z,8.40
2019-02-07T20:57:05.290Z,7.40
2019-02-07T20:59:56.776Z,10.40
2019-02-07T21:02:46.859Z,10.27
2019-02-07T21:05:37.618Z,12.07
2019-02-07T21:08:27.910Z,9.13
2019-02-07T21:11:17.891Z,13.60
2019-02-07T21:14:08.201Z,11.13
2019-02-07T21:16:59.265Z,11.07
2019-02-07T21:19:49.632Z,8.47
2019-02-07T21:22:40.084Z,7.50
2019-02-07T21:25:39.626Z,7.93
2019-02-07T21:28:30.226Z,10.87
2019-02-07T21:31:20.622Z,11.50
2019-02-07T21:34:10.604Z,5.47
2019-02-07T21:37:00.609Z,12.87
2019-02-07T21:39:50.656Z,12.73
2019-02-07T21:42:41.022Z,12.87
2019-02-07T21:45:31.254Z,6.97
2019-02-07T21:48:21.570Z,10.37
2019-02-07T21:51:13.246Z,11.37
2019-02-07T21:54:03.462Z,12.70
2019-02-07T21:56:54.503Z,10.40
2019-02-07T21:59:45.450Z,11.83
2019-02-07T22:02:35.765Z,12.33
2019-02-07T22:05:26.114Z,4.80
2019-02-07T22:08:16.070Z,6.03
2019-02-07T22:11:06.295Z,14.47
2019-02-07T22:13:57.511Z,10.43
2019-02-07T22:16:47.803Z,2.93
2019-02-07T22:19:37.910Z,9.37
2019-02-07T22:22:28.184Z,7.20
2019-02-07T22:25:19.622Z,5.10
2019-02-07T22:28:11.122Z,5.13
2019-02-07T22:31:01.257Z,6.17
2019-02-07T22:33:52.381Z,6.70
2019-02-07T22:36:42.445Z,3.73
2019-02-07T22:39:32.629Z,5.50
2019-02-07T22:42:23.453Z,6.33
2019-02-07T22:45:14.637Z,4.80
2019-02-07T22:48:06.179Z,4.83
2019-02-07T22:50:56.469Z,7.63
2019-02-07T22:53:46.778Z,8.23
2019-02-07T22:56:45.110Z,7.27
2019-02-07T22:59:29.075Z,7.07
2019-02-07T23:02:19.311Z,9.67
2019-02-07T23:05:09.593Z,8.37
2019-02-07T23:08:00.586Z,9.00
2019-02-07T23:10:50.681Z,9.47
2019-02-07T23:13:40.789Z,14.37
2019-02-07T23:16:30.962Z,9.77
2019-02-07T23:19:21.244Z,7.87
2019-02-07T23:22:11.392Z,6.10
2019-02-07T23:25:01.680Z,8.10
2019-02-07T23:27:52.508Z,13.57
2019-02-07T23:30:42.746Z,7.20
2019-02-07T23:33:33.023Z,13.57
2019-02-07T23:36:23.933Z,11.37
2019-02-07T23:39:14.370Z,8.63
2019-02-07T23:42:05.338Z,10.97
2019-02-07T23:44:55.514Z,6.97
2019-02-07T23:47:46.294Z,7.27
2019-02-07T23:50:36.507Z,7.10
2019-02-07T23:53:26.613Z,10.23
2019-02-07T23:56:16.609Z,10.20
2019-02-07T23:59:06.621Z,12.17
